createdAt,value
2022-09-24T00:02:22.382Z,82.63
2022-09-24T00:04:54.650Z,82.93
2022-09-24T00:07:26.955Z,82.66
2022-09-24T00:09:59.894Z,83.04
2022-09-24T00:12:32.689Z,82.91
2022-09-24T00:15:06.170Z,82.73
2022-09-24T00:17:38.463Z,83.09
2022-09-24T00:20:11.598Z,83.53
2022-09-24T00:22:43.903Z,82.95
2022-09-24T00:25:34.950Z,83.08
2022-09-24T00:28:07.820Z,82.40
2022-09-24T00:30:40.775Z,82.51
2022-09-24T00:33:13.035Z,82.87
2022-09-24T00:35:45.327Z,82.53
2022-09-24T00:38:18.189Z,82.99
2022-09-24T00:40:51.277Z,83.04
2022-09-24T00:43:26.071Z,83.10
2022-09-24T00:46:07.393Z,82.48
2022-09-24T00:48:40.804Z,82.68
2022-09-24T00:51:16.915Z,82.40
2022-09-24T00:53:51.997Z,83.10
2022-09-24T00:56:25.527Z,83.20
2022-09-24T00:59:01.731Z,83.39
2022-09-24T01:01:34.163Z,83.90
2022-09-24T01:04:07.243Z,83.74
2022-09-24T01:06:39.655Z,83.28
2022-09-24T01:09:12.066Z,83.18
2022-09-24T01:11:53.437Z,82.92
2022-09-24T01:14:39.843Z,83.54
2022-09-24T01:17:25.019Z,82.91
2022-09-24T01:20:24.867Z,83.00
2022-09-24T01:23:15.984Z,83.53
2022-09-24T01:26:02.420Z,83.56
2022-09-24T01:28:55.019Z,83.17
2022-09-24T01:31:33.959Z,82.78
2022-09-24T01:34:08.680Z,82.61
2022-09-24T01:36:42.580Z,82.76
2022-09-24T01:39:16.176Z,82.87
2022-09-24T01:41:49.515Z,83.13
2022-09-24T01:44:21.916Z,82.81
2022-09-24T01:46:55.592Z,83.63
2022-09-24T01:49:27.964Z,83.54
2022-09-24T01:52:05.869Z,83.76
2022-09-24T01:54:42.133Z,83.87
2022-09-24T01:57:19.235Z,84.03
2022-09-24T01:59:57.197Z,83.91
2022-09-24T02:02:37.043Z,84.42
2022-09-24T02:05:16.071Z,84.05
2022-09-24T02:07:57.753Z,84.39
2022-09-24T02:10:37.464Z,83.75
2022-09-24T02:13:13.294Z,84.00
2022-09-24T02:15:50.230Z,84.53
2022-09-24T02:18:28.122Z,84.18
2022-09-24T02:21:05.856Z,84.72
2022-09-24T02:23:43.726Z,84.74
2022-09-24T02:26:16.210Z,84.85
2022-09-24T02:28:48.885Z,84.47
2022-09-24T02:31:26.529Z,84.93
2022-09-24T02:34:21.465Z,85.41
2022-09-24T02:36:58.490Z,85.27
2022-09-24T02:39:30.987Z,84.65
2022-09-24T02:42:04.831Z,84.11
2022-09-24T02:44:37.142Z,84.81
2022-09-24T02:47:09.469Z,84.97
2022-09-24T02:49:42.404Z,85.53
2022-09-24T02:52:14.628Z,85.28
2022-09-24T02:54:46.928Z,86.40
2022-09-24T02:57:19.762Z,86.09
2022-09-24T02:59:52.099Z,86.46
2022-09-24T03:02:24.484Z,86.59
2022-09-24T03:04:57.594Z,86.32
2022-09-24T03:07:29.858Z,86.28
2022-09-24T03:10:02.150Z,85.63
2022-09-24T03:12:34.455Z,85.34
2022-09-24T03:15:07.234Z,85.79
2022-09-24T03:17:39.512Z,85.16
2022-09-24T03:20:12.478Z,84.83
2022-09-24T03:22:44.756Z,85.47
2022-09-24T03:25:17.432Z,85.07
2022-09-24T03:27:49.677Z,85.38
2022-09-24T03:30:40.385Z,85.98
2022-09-24T03:33:13.122Z,86.05
2022-09-24T03:35:46.101Z,85.29
2022-09-24T03:38:18.375Z,86.10
2022-09-24T03:40:51.035Z,85.90
2022-09-24T03:43:23.869Z,86.49
2022-09-24T03:45:56.151Z,86.48
2022-09-24T03:48:29.547Z,85.82
2022-09-24T03:51:04.726Z,85.23
2022-09-24T03:53:37.205Z,85.46
2022-09-24T03:56:11.191Z,85.53
2022-09-24T03:58:46.646Z,85.73
2022-09-24T04:01:20.430Z,85.69
2022-09-24T04:03:53.021Z,85.50
2022-09-24T04:06:26.306Z,85.74
2022-09-24T04:08:59.712Z,85.81
2022-09-24T04:11:34.476Z,85.85
2022-09-24T04:14:07.004Z,86.00
2022-09-24T04:16:39.291Z,85.71
2022-09-24T04:19:11.753Z,86.08
2022-09-24T04:21:44.809Z,86.16
2022-09-24T04:24:17.242Z,86.09
2022-09-24T04:26:50.036Z,86.33
2022-09-24T04:29:22.287Z,86.44
2022-09-24T04:31:54.612Z,86.49
2022-09-24T04:34:26.909Z,86.80
2022-09-24T04:36:59.901Z,87.30
2022-09-24T04:39:32.234Z,86.60
2022-09-24T04:42:04.544Z,86.49
2022-09-24T04:44:37.692Z,86.68
2022-09-24T04:47:10.791Z,86.96
2022-09-24T04:49:45.132Z,86.07
2022-09-24T04:52:18.232Z,85.95
2022-09-24T04:54:50.593Z,86.54
2022-09-24T04:57:22.959Z,86.96
2022-09-24T04:59:55.354Z,87.24
2022-09-24T05:02:27.688Z,87.64
2022-09-24T05:04:59.985Z,87.66
2022-09-24T05:07:32.887Z,87.90
2022-09-24T05:10:06.311Z,88.31
2022-09-24T05:12:40.056Z,88.22
2022-09-24T05:15:12.326Z,89.04
2022-09-24T05:17:45.123Z,88.66
2022-09-24T05:20:17.536Z,88.43
2022-09-24T05:22:50.931Z,88.69
2022-09-24T05:25:23.548Z,88.88
2022-09-24T05:27:55.623Z,89.94
2022-09-24T05:30:28.100Z,89.77
2022-09-24T05:33:00.372Z,90.40
2022-09-24T05:35:32.659Z,90.81
2022-09-24T05:38:05.599Z,91.27
2022-09-24T05:40:50.074Z,91.34
2022-09-24T05:43:23.001Z,92.50
2022-09-24T05:45:57.875Z,92.99
2022-09-24T05:48:30.148Z,93.23
2022-09-24T05:51:02.799Z,93.36
2022-09-24T05:53:35.788Z,92.70
2022-09-24T05:56:09.598Z,92.58
2022-09-24T05:58:41.896Z,92.03
2022-09-24T06:01:14.619Z,91.24
2022-09-24T06:03:47.123Z,91.58
2022-09-24T06:06:19.414Z,90.96
2022-09-24T06:08:52.534Z,90.10
2022-09-24T06:11:24.945Z,89.04
2022-09-24T06:13:57.287Z,87.10
2022-09-24T06:16:29.632Z,86.04
2022-09-24T06:19:02.050Z,85.67
2022-09-24T06:21:34.431Z,84.51
2022-09-24T06:24:07.644Z,84.70
2022-09-24T06:26:40.716Z,82.74
2022-09-24T06:29:14.431Z,81.69
2022-09-24T06:31:47.005Z,82.63
2022-09-24T06:34:19.372Z,81.72
2022-09-24T06:36:53.688Z,81.59
2022-09-24T06:39:27.020Z,80.83
2022-09-24T06:41:59.312Z,80.05
2022-09-24T06:44:37.973Z,79.55
2022-09-24T06:47:11.879Z,78.79
2022-09-24T06:49:44.168Z,78.25
2022-09-24T06:52:16.443Z,77.37
2022-09-24T06:54:49.365Z,77.07
2022-09-24T06:57:26.593Z,76.88
2022-09-24T07:00:01.433Z,75.14
2022-09-24T07:02:33.717Z,74.46
2022-09-24T07:05:07.582Z,71.75
2022-09-24T07:07:40.695Z,70.01
2022-09-24T07:10:14.390Z,70.75
2022-09-24T07:12:46.660Z,68.47
2022-09-24T07:15:19.063Z,64.50
2022-09-24T07:17:55.246Z,62.57
2022-09-24T07:20:28.165Z,63.15
2022-09-24T07:23:00.461Z,60.01
2022-09-24T07:25:34.022Z,56.32
2022-09-24T07:28:09.699Z,50.78
2022-09-24T07:30:42.275Z,49.53
2022-09-24T07:33:14.550Z,50.74
2022-09-24T07:35:46.826Z,49.37
2022-09-24T07:38:19.114Z,49.19
2022-09-24T07:40:52.288Z,46.88
2022-09-24T07:43:24.927Z,47.55
2022-09-24T07:45:57.653Z,45.15
2022-09-24T07:48:29.963Z,45.46
2022-09-24T07:51:02.260Z,45.51
2022-09-24T07:53:34.576Z,45.80
2022-09-24T07:56:07.546Z,45.48
2022-09-24T07:58:39.912Z,44.08
2022-09-24T08:01:12.224Z,43.57
2022-09-24T08:03:45.693Z,44.80
2022-09-24T08:06:19.362Z,44.05
2022-09-24T08:08:52.486Z,42.72
2022-09-24T08:11:25.638Z,42.45
2022-09-24T08:13:58.026Z,43.20
2022-09-24T08:16:30.312Z,42.07
2022-09-24T08:19:02.679Z,41.79
2022-09-24T08:21:38.391Z,41.01
2022-09-24T08:24:10.846Z,41.04
2022-09-24T08:26:43.790Z,41.86
2022-09-24T08:29:16.128Z,40.74
2022-09-24T08:31:48.860Z,41.34
2022-09-24T08:34:21.249Z,41.55
2022-09-24T08:36:53.534Z,40.90
2022-09-24T08:39:27.107Z,40.97
2022-09-24T08:42:04.928Z,40.45
2022-09-24T08:44:58.844Z,41.07
2022-09-24T08:47:36.353Z,40.89
2022-09-24T08:50:14.650Z,39.49
2022-09-24T08:52:58.193Z,39.73
2022-09-24T08:55:37.290Z,39.35
2022-09-24T08:58:33.567Z,38.73
2022-09-24T09:01:17.989Z,38.44
2022-09-24T09:03:56.826Z,38.50
2022-09-24T09:06:53.246Z,38.27
2022-09-24T09:09:33.380Z,38.67
2022-09-24T09:12:12.190Z,37.99
2022-09-24T09:14:52.694Z,38.08
2022-09-24T09:17:41.528Z,38.19
2022-09-24T09:20:17.954Z,38.68
2022-09-24T09:22:52.674Z,37.41
2022-09-24T09:25:29.224Z,36.98
2022-09-24T09:28:06.968Z,36.82
2022-09-24T09:30:48.942Z,36.38
2022-09-24T09:33:34.471Z,36.03
2022-09-24T09:36:27.127Z,36.04
2022-09-24T09:39:07.858Z,36.90
2022-09-24T09:41:46.298Z,36.02
2022-09-24T09:44:23.250Z,35.97
2022-09-24T09:47:06.191Z,35.20
2022-09-24T09:49:40.007Z,35.42
2022-09-24T09:52:18.074Z,36.70
2022-09-24T09:54:50.510Z,36.08
2022-09-24T09:57:25.141Z,34.68
2022-09-24T09:59:57.668Z,34.55
2022-09-24T10:02:33.095Z,34.60
2022-09-24T10:05:06.449Z,35.15
2022-09-24T10:07:44.755Z,35.31
2022-09-24T10:10:19.431Z,34.21
2022-09-24T10:12:53.709Z,34.36
2022-09-24T10:15:26.106Z,34.08
2022-09-24T10:18:00.711Z,34.23
2022-09-24T10:20:33.977Z,34.70
2022-09-24T10:23:18.369Z,33.58
2022-09-24T10:25:59.329Z,32.44
2022-09-24T10:28:51.974Z,33.07
2022-09-24T10:31:26.642Z,32.75
2022-09-24T10:34:01.218Z,33.91
2022-09-24T10:36:34.360Z,32.99
2022-09-24T10:39:12.595Z,32.94
2022-09-24T10:41:49.478Z,32.39
2022-09-24T10:44:22.563Z,32.60
2022-09-24T10:47:11.414Z,32.17
2022-09-24T10:50:04.351Z,32.40
2022-09-24T10:52:45.726Z,31.50
2022-09-24T10:55:28.413Z,32.62
2022-09-24T10:58:06.042Z,31.36
2022-09-24T11:00:40.320Z,31.46
2022-09-24T11:03:42.396Z,31.93
2022-09-24T11:06:22.671Z,31.68
2022-09-24T11:09:07.746Z,31.57
2022-09-24T11:11:50.451Z,32.00
2022-09-24T11:14:45.835Z,32.10
2022-09-24T11:17:33.098Z,31.14
2022-09-24T11:20:23.557Z,30.82
2022-09-24T11:23:21.580Z,30.66
2022-09-24T11:26:02.754Z,30.81
2022-09-24T11:29:00.183Z,30.27
2022-09-24T11:31:40.570Z,30.83
2022-09-24T11:34:29.914Z,31.39
2022-09-24T11:37:13.900Z,31.13
2022-09-24T11:40:03.119Z,30.49
2022-09-24T11:42:49.759Z,30.06
2022-09-24T11:45:33.803Z,30.97
2022-09-24T11:48:24.475Z,30.62
2022-09-24T11:51:06.340Z,30.03
2022-09-24T11:53:43.331Z,29.42
2022-09-24T11:56:23.697Z,29.90
2022-09-24T11:58:59.588Z,30.27
2022-09-24T12:01:35.661Z,30.50
2022-09-24T12:04:15.623Z,30.41
2022-09-24T12:06:54.488Z,30.39
2022-09-24T12:09:32.061Z,30.11
2022-09-24T12:12:09.431Z,30.80
2022-09-24T12:14:47.618Z,30.90
2022-09-24T12:17:25.961Z,32.05
2022-09-24T12:20:02.599Z,30.59
2022-09-24T12:22:39.976Z,30.63
2022-09-24T12:25:13.422Z,29.93
2022-09-24T12:27:47.644Z,29.72
2022-09-24T12:30:51.544Z,30.30
2022-09-24T12:33:31.750Z,30.31
2022-09-24T12:36:12.263Z,29.76
2022-09-24T12:38:47.665Z,29.89
2022-09-24T12:41:26.540Z,30.45
2022-09-24T12:44:05.783Z,30.13
2022-09-24T12:46:41.080Z,29.25
2022-09-24T12:49:24.574Z,29.23
2022-09-24T12:51:59.510Z,29.32
2022-09-24T12:54:33.929Z,29.36
2022-09-24T12:57:09.472Z,29.72
2022-09-24T12:59:51.040Z,30.07
2022-09-24T13:02:25.556Z,29.30
2022-09-24T13:05:16.670Z,28.88
2022-09-24T13:08:00.070Z,29.72
2022-09-24T13:10:34.958Z,28.90
2022-09-24T13:13:23.219Z,29.43
2022-09-24T13:16:02.169Z,29.57
2022-09-24T13:18:36.364Z,29.72
2022-09-24T13:21:18.432Z,30.36
2022-09-24T13:23:51.267Z,30.63
2022-09-24T13:26:33.496Z,29.82
2022-09-24T13:29:22.598Z,30.23
2022-09-24T13:32:02.140Z,29.59
2022-09-24T13:34:34.590Z,29.46
2022-09-24T13:37:16.808Z,29.69
2022-09-24T13:39:55.445Z,29.44
2022-09-24T13:42:34.882Z,29.71
2022-09-24T13:45:15.247Z,29.88
2022-09-24T13:47:52.851Z,30.00
2022-09-24T13:50:28.842Z,30.23
2022-09-24T13:53:05.815Z,30.76
2022-09-24T13:55:42.829Z,30.10
2022-09-24T13:58:27.129Z,30.23
2022-09-24T14:01:02.361Z,30.32
2022-09-24T14:03:37.182Z,30.60
2022-09-24T14:06:11.762Z,30.67
2022-09-24T14:08:46.571Z,30.94
2022-09-24T14:11:20.680Z,31.19
2022-09-24T14:13:54.383Z,31.19
2022-09-24T14:16:26.713Z,31.30
2022-09-24T14:19:04.265Z,31.42
2022-09-24T14:21:40.235Z,31.70
2022-09-24T14:24:18.213Z,31.95
2022-09-24T14:26:55.472Z,31.73
2022-09-24T14:29:42.777Z,32.13
2022-09-24T14:32:23.046Z,32.13
2022-09-24T14:34:58.316Z,32.63
2022-09-24T14:37:33.973Z,31.61
2022-09-24T14:40:12.493Z,32.09
2022-09-24T14:42:48.061Z,33.01
2022-09-24T14:45:23.180Z,32.66
2022-09-24T14:48:03.266Z,32.76
2022-09-24T14:50:39.058Z,33.28
2022-09-24T14:53:13.475Z,33.42
2022-09-24T14:55:45.903Z,31.83
2022-09-24T14:58:32.349Z,32.21
2022-09-24T15:01:13.427Z,32.74
2022-09-24T15:03:49.031Z,32.74
2022-09-24T15:06:25.424Z,32.08
2022-09-24T15:09:03.616Z,31.92
2022-09-24T15:11:43.400Z,32.39
2022-09-24T15:14:25.145Z,32.85
2022-09-24T15:17:09.717Z,31.50
2022-09-24T15:19:43.319Z,31.92
2022-09-24T15:22:16.315Z,31.67
2022-09-24T15:24:48.633Z,31.54
2022-09-24T15:27:22.971Z,31.40
2022-09-24T15:29:57.592Z,32.10
2022-09-24T15:32:31.847Z,32.10
2022-09-24T15:35:08.652Z,31.68
2022-09-24T15:37:42.475Z,32.21
2022-09-24T15:40:23.874Z,31.98
2022-09-24T15:42:56.335Z,33.09
2022-09-24T15:45:28.636Z,34.10
2022-09-24T15:48:01.329Z,34.86
2022-09-24T15:50:33.735Z,35.64
2022-09-24T15:53:12.220Z,36.39
2022-09-24T15:55:48.767Z,36.75
2022-09-24T15:58:21.501Z,36.76
2022-09-24T16:00:54.420Z,37.06
2022-09-24T16:03:28.293Z,37.41
2022-09-24T16:06:00.770Z,37.62
2022-09-24T16:08:33.763Z,38.13
2022-09-24T16:11:09.046Z,38.50
2022-09-24T16:13:41.636Z,39.05
2022-09-24T16:16:13.989Z,39.02
2022-09-24T16:18:46.302Z,39.62
2022-09-24T16:21:18.600Z,41.94
2022-09-24T16:23:54.938Z,42.81
2022-09-24T16:26:27.275Z,43.44
2022-09-24T16:29:01.824Z,43.99
2022-09-24T16:31:34.176Z,44.89
2022-09-24T16:34:06.645Z,45.02
2022-09-24T16:36:38.974Z,45.15
2022-09-24T16:39:12.062Z,45.42
2022-09-24T16:41:44.377Z,45.78
2022-09-24T16:44:17.000Z,46.55
2022-09-24T16:46:49.544Z,46.57
2022-09-24T16:49:22.602Z,46.97
2022-09-24T16:51:55.290Z,47.72
2022-09-24T16:54:32.043Z,48.62
2022-09-24T16:57:05.707Z,48.83
2022-09-24T16:59:38.009Z,49.05
2022-09-24T17:02:12.160Z,49.58
2022-09-24T17:04:44.474Z,50.62
2022-09-24T17:07:16.850Z,51.51
2022-09-24T17:10:07.886Z,51.78
2022-09-24T17:12:41.401Z,52.27
2022-09-24T17:15:15.262Z,52.28
2022-09-24T17:17:50.511Z,52.44
2022-09-24T17:20:23.021Z,53.67
2022-09-24T17:22:55.336Z,53.53
2022-09-24T17:25:28.735Z,54.24
2022-09-24T17:28:01.613Z,54.13
2022-09-24T17:30:33.914Z,54.45
2022-09-24T17:33:25.345Z,54.52
2022-09-24T17:36:00.317Z,55.27
2022-09-24T17:38:33.445Z,55.78
2022-09-24T17:41:09.131Z,56.33
2022-09-24T17:43:41.686Z,57.04
2022-09-24T17:46:15.751Z,57.00
2022-09-24T17:48:50.543Z,57.64
2022-09-24T17:51:24.408Z,58.13
2022-09-24T17:53:56.759Z,58.40
2022-09-24T17:56:31.702Z,58.20
2022-09-24T17:59:05.075Z,59.01
2022-09-24T18:01:38.944Z,59.45
2022-09-24T18:04:13.280Z,59.80
2022-09-24T18:06:47.555Z,59.79
2022-09-24T18:09:20.272Z,60.07
2022-09-24T18:11:53.373Z,60.82
2022-09-24T18:14:25.769Z,61.33
2022-09-24T18:16:59.149Z,61.75
2022-09-24T18:19:31.476Z,61.76
2022-09-24T18:22:08.374Z,62.43
2022-09-24T18:24:41.343Z,62.84
2022-09-24T18:27:15.340Z,62.96
2022-09-24T18:29:47.651Z,63.09
2022-09-24T18:32:20.082Z,64.13
2022-09-24T18:34:52.435Z,63.68
2022-09-24T18:37:24.817Z,63.71
2022-09-24T18:39:57.350Z,64.16
2022-09-24T18:42:30.364Z,64.66
2022-09-24T18:45:03.880Z,64.84
2022-09-24T18:47:37.458Z,65.02
2022-09-24T18:50:09.999Z,64.53
2022-09-24T18:52:42.393Z,64.93
2022-09-24T18:55:14.877Z,65.01
2022-09-24T18:57:47.959Z,64.79
2022-09-24T19:00:38.782Z,64.23
2022-09-24T19:03:11.121Z,62.63
2022-09-24T19:05:43.602Z,63.09
2022-09-24T19:08:16.638Z,63.22
2022-09-24T19:10:51.911Z,63.14
2022-09-24T19:13:26.597Z,64.32
2022-09-24T19:16:03.997Z,65.09
2022-09-24T19:18:38.690Z,64.38
2022-09-24T19:21:13.401Z,64.60
2022-09-24T19:23:47.648Z,64.70
2022-09-24T19:26:22.466Z,65.41
2022-09-24T19:28:56.430Z,64.40
2022-09-24T19:31:30.536Z,65.63
2022-09-24T19:34:04.342Z,65.24
2022-09-24T19:36:42.776Z,65.89
2022-09-24T19:39:17.469Z,66.23
2022-09-24T19:41:52.151Z,66.04
2022-09-24T19:44:25.140Z,66.29
2022-09-24T19:46:57.457Z,66.83
2022-09-24T19:49:29.807Z,67.19
2022-09-24T19:52:04.046Z,67.60
2022-09-24T19:54:43.813Z,67.61
2022-09-24T19:57:16.029Z,67.17
2022-09-24T19:59:48.874Z,67.68
2022-09-24T20:02:21.337Z,67.95
2022-09-24T20:04:53.711Z,68.61
2022-09-24T20:07:26.883Z,68.50
2022-09-24T20:09:59.230Z,68.94
2022-09-24T20:12:31.615Z,69.17
2022-09-24T20:15:05.972Z,69.49
2022-09-24T20:17:38.300Z,69.05
2022-09-24T20:20:10.609Z,69.01
2022-09-24T20:22:43.135Z,69.70
2022-09-24T20:25:15.611Z,70.08
2022-09-24T20:27:50.459Z,70.06
2022-09-24T20:30:23.459Z,70.35
2022-09-24T20:32:55.948Z,69.94
2022-09-24T20:35:28.259Z,70.39
2022-09-24T20:38:00.592Z,70.13
2022-09-24T20:40:35.609Z,70.16
2022-09-24T20:43:08.064Z,70.45
2022-09-24T20:45:41.041Z,70.37
2022-09-24T20:48:13.376Z,71.18
2022-09-24T20:50:45.712Z,70.34
2022-09-24T20:53:18.148Z,69.93
2022-09-24T20:55:53.204Z,69.56
2022-09-24T20:58:25.537Z,69.97
2022-09-24T21:00:59.301Z,69.93
2022-09-24T21:03:48.640Z,69.32
2022-09-24T21:06:22.150Z,69.78
2022-09-24T21:08:54.393Z,70.04
2022-09-24T21:11:26.712Z,70.36
2022-09-24T21:14:00.393Z,70.48
2022-09-24T21:16:34.431Z,70.00
2022-09-24T21:19:07.167Z,70.45
2022-09-24T21:21:39.807Z,70.13
2022-09-24T21:24:14.521Z,70.68
2022-09-24T21:26:46.811Z,69.74
2022-09-24T21:29:20.309Z,69.78
2022-09-24T21:31:53.203Z,70.11
2022-09-24T21:34:26.875Z,70.11
2022-09-24T21:36:59.403Z,70.77
2022-09-24T21:39:31.614Z,70.86
2022-09-24T21:42:04.678Z,71.70
2022-09-24T21:44:37.106Z,72.21
2022-09-24T21:47:10.028Z,71.57
2022-09-24T21:49:42.280Z,71.79
2022-09-24T21:52:15.466Z,71.87
2022-09-24T21:54:47.775Z,72.04
2022-09-24T21:57:19.998Z,70.23
2022-09-24T22:00:03.295Z,70.96
2022-09-24T22:02:43.173Z,71.14
2022-09-24T22:05:16.617Z,71.68
2022-09-24T22:07:48.954Z,71.44
2022-09-24T22:10:21.264Z,71.66
2022-09-24T22:12:53.585Z,72.17
2022-09-24T22:15:25.951Z,73.22
2022-09-24T22:17:59.403Z,72.97
2022-09-24T22:20:31.767Z,73.70
2022-09-24T22:23:04.124Z,72.85
2022-09-24T22:25:36.451Z,72.94
2022-09-24T22:28:28.216Z,73.29
2022-09-24T22:31:04.962Z,73.64
2022-09-24T22:33:57.213Z,74.00
2022-09-24T22:36:30.591Z,74.27
2022-09-24T22:39:04.481Z,74.75
2022-09-24T22:41:39.185Z,74.79
2022-09-24T22:44:11.690Z,75.05
2022-09-24T22:46:44.049Z,74.53
2022-09-24T22:49:16.980Z,75.35
2022-09-24T22:51:49.452Z,75.08
2022-09-24T22:54:23.564Z,75.14
2022-09-24T22:56:55.824Z,75.73
2022-09-24T22:59:28.079Z,74.56
2022-09-24T23:02:00.383Z,74.45
2022-09-24T23:04:33.558Z,74.91
2022-09-24T23:07:05.862Z,75.26
2022-09-24T23:09:38.096Z,75.01
2022-09-24T23:12:10.395Z,74.70
2022-09-24T23:14:42.729Z,74.42
2022-09-24T23:17:15.142Z,74.26
2022-09-24T23:19:48.109Z,74.34
2022-09-24T23:22:21.747Z,74.07
2022-09-24T23:24:54.066Z,74.85
2022-09-24T23:27:26.580Z,74.96
2022-09-24T23:29:59.882Z,74.70
2022-09-24T23:32:32.252Z,74.95
2022-09-24T23:35:05.876Z,75.59
2022-09-24T23:37:38.265Z,75.75
2022-09-24T23:40:10.896Z,75.45
2022-09-24T23:42:43.286Z,75.52
2022-09-24T23:45:16.569Z,74.68
2022-09-24T23:47:48.878Z,75.10
2022-09-24T23:50:21.858Z,73.68
2022-09-24T23:52:54.143Z,74.37
2022-09-24T23:55:26.416Z,74.95
2022-09-24T23:57:58.719Z,75.06
